sensor_id;sensor_type;location;lat;lon;timestamp;pressure;altitude;pressure_sealevel;temperature;humidity
6204;BME280;3135;42.602;23.468;2023-02-11T00:00:32;94521.88;;;-4.90;100.00
6204;BME280;3135;42.602;23.468;2023-02-11T00:02:57;94540.09;;;-4.72;100.00
6204;BME280;3135;42.602;23.468;2023-02-11T00:05:23;94533.34;;;-4.82;100.00
6204;BME280;3135;42.602;23.468;2023-02-11T00:07:48;94520.97;;;-4.80;100.00
6204;BME280;3135;42.602;23.468;2023-02-11T00:10:14;94515.91;;;-4.82;100.00
6204;BME280;3135;42.602;23.468;2023-02-11T00:12:39;94531.63;;;-4.74;100.00
6204;BME280;3135;42.602;23.468;2023-02-11T00:15:06;94529.81;;;-4.73;100.00
6204;BME280;3135;42.602;23.468;2023-02-11T00:17:32;94518.44;;;-4.90;100.00
6204;BME280;3135;42.602;23.468;2023-02-11T00:19:57;94511.41;;;-4.98;100.00
6204;BME280;3135;42.602;23.468;2023-02-11T00:22:23;94535.50;;;-4.78;100.00
6204;BME280;3135;42.602;23.468;2023-02-11T00:24:48;94538.94;;;-4.95;100.00
6204;BME280;3135;42.602;23.468;2023-02-11T00:27:14;94521.47;;;-5.03;100.00
6204;BME280;3135;42.602;23.468;2023-02-11T00:29:39;94539.31;;;-4.90;100.00
6204;BME280;3135;42.602;23.468;2023-02-11T00:32:05;94527.94;;;-4.89;100.00
6204;BME280;3135;42.602;23.468;2023-02-11T00:34:34;94543.78;;;-4.82;100.00
6204;BME280;3135;42.602;23.468;2023-02-11T00:36:59;94534.22;;;-4.74;100.00
6204;BME280;3135;42.602;23.468;2023-02-11T00:39:25;94512.06;;;-4.96;100.00
6204;BME280;3135;42.602;23.468;2023-02-11T00:41:50;94538.25;;;-4.79;100.00
6204;BME280;3135;42.602;23.468;2023-02-11T00:44:16;94525.63;;;-4.92;100.00
6204;BME280;3135;42.602;23.468;2023-02-11T00:46:41;94520.66;;;-5.03;100.00
6204;BME280;3135;42.602;23.468;2023-02-11T00:49:07;94514.84;;;-4.97;100.00
6204;BME280;3135;42.602;23.468;2023-02-11T00:51:32;94536.78;;;-4.82;100.00
6204;BME280;3135;42.602;23.468;2023-02-11T00:53:58;94507.75;;;-5.05;100.00
6204;BME280;3135;42.602;23.468;2023-02-11T00:56:23;94506.47;;;-5.27;100.00
6204;BME280;3135;42.602;23.468;2023-02-11T00:58:49;94493.38;;;-5.35;100.00
6204;BME280;3135;42.602;23.468;2023-02-11T01:01:14;94499.31;;;-5.25;100.00
6204;BME280;3135;42.602;23.468;2023-02-11T01:03:40;94495.25;;;-5.01;100.00
6204;BME280;3135;42.602;23.468;2023-02-11T01:06:07;94518.41;;;-4.98;100.00
6204;BME280;3135;42.602;23.468;2023-02-11T01:08:33;94493.56;;;-5.10;100.00
6204;BME280;3135;42.602;23.468;2023-02-11T01:11:06;94507.03;;;-5.15;100.00
6204;BME280;3135;42.602;23.468;2023-02-11T01:13:35;94499.75;;;-5.11;100.00
6204;BME280;3135;42.602;23.468;2023-02-11T01:16:02;94490.44;;;-5.32;100.00
6204;BME280;3135;42.602;23.468;2023-02-11T01:18:28;94482.25;;;-5.37;100.00
6204;BME280;3135;42.602;23.468;2023-02-11T01:20:53;94506.66;;;-5.02;100.00
6204;BME280;3135;42.602;23.468;2023-02-11T01:23:19;94513.66;;;-5.03;100.00
6204;BME280;3135;42.602;23.468;2023-02-11T01:25:45;94502.03;;;-5.08;100.00
6204;BME280;3135;42.602;23.468;2023-02-11T01:28:23;94504.59;;;-5.17;100.00
6204;BME280;3135;42.602;23.468;2023-02-11T01:30:49;94502.06;;;-5.26;100.00
6204;BME280;3135;42.602;23.468;2023-02-11T01:33:14;94486.22;;;-5.33;100.00
6204;BME280;3135;42.602;23.468;2023-02-11T01:35:41;94498.84;;;-5.20;100.00
6204;BME280;3135;42.602;23.468;2023-02-11T01:38:08;94503.97;;;-5.10;100.00
6204;BME280;3135;42.602;23.468;2023-02-11T01:40:38;94485.19;;;-5.40;100.00
6204;BME280;3135;42.602;23.468;2023-02-11T01:43:04;94512.34;;;-5.25;100.00
6204;BME280;3135;42.602;23.468;2023-02-11T01:48:24;94503.63;;;-5.33;100.00
6204;BME280;3135;42.602;23.468;2023-02-11T01:50:58;94498.94;;;-5.30;100.00
6204;BME280;3135;42.602;23.468;2023-02-11T01:53:25;94476.84;;;-5.61;100.00
6204;BME280;3135;42.602;23.468;2023-02-11T01:56:12;94467.66;;;-5.74;100.00
6204;BME280;3135;42.602;23.468;2023-02-11T01:59:02;94489.81;;;-5.52;100.00
6204;BME280;3135;42.602;23.468;2023-02-11T02:01:30;94467.66;;;-5.74;100.00
6204;BME280;3135;42.602;23.468;2023-02-11T02:04:00;94493.59;;;-5.46;100.00
6204;BME280;3135;42.602;23.468;2023-02-11T02:09:19;94473.28;;;-5.60;100.00
6204;BME280;3135;42.602;23.468;2023-02-11T02:11:43;94482.97;;;-5.53;100.00
6204;BME280;3135;42.602;23.468;2023-02-11T02:14:08;94481.94;;;-5.78;100.00
6204;BME280;3135;42.602;23.468;2023-02-11T02:16:35;94489.59;;;-5.58;100.00
6204;BME280;3135;42.602;23.468;2023-02-11T02:19:36;94491.38;;;-5.59;100.00
6204;BME280;3135;42.602;23.468;2023-02-11T02:25:17;94491.44;;;-5.86;100.00
6204;BME280;3135;42.602;23.468;2023-02-11T02:33:36;94491.88;;;-5.55;100.00
6204;BME280;3135;42.602;23.468;2023-02-11T02:39:07;94494.06;;;-5.69;100.00
6204;BME280;3135;42.602;23.468;2023-02-11T02:41:34;94498.28;;;-5.68;100.00
6204;BME280;3135;42.602;23.468;2023-02-11T02:44:02;94479.31;;;-5.78;100.00
6204;BME280;3135;42.602;23.468;2023-02-11T02:46:30;94474.13;;;-5.78;100.00
6204;BME280;3135;42.602;23.468;2023-02-11T02:48:57;94490.56;;;-5.59;100.00
6204;BME280;3135;42.602;23.468;2023-02-11T02:56:40;94494.59;;;-6.01;100.00
6204;BME280;3135;42.602;23.468;2023-02-11T03:07:51;94490.25;;;-6.10;100.00
6204;BME280;3135;42.602;23.468;2023-02-11T03:10:26;94495.25;;;-5.99;100.00
6204;BME280;3135;42.602;23.468;2023-02-11T03:12:54;94471.03;;;-6.27;100.00
6204;BME280;3135;42.602;23.468;2023-02-11T03:15:22;94472.00;;;-6.28;100.00
6204;BME280;3135;42.602;23.468;2023-02-11T03:17:51;94493.25;;;-6.05;100.00
6204;BME280;3135;42.602;23.468;2023-02-11T03:20:19;94484.47;;;-6.04;100.00
6204;BME280;3135;42.602;23.468;2023-02-11T03:22:51;94464.75;;;-6.06;100.00
6204;BME280;3135;42.602;23.468;2023-02-11T03:25:18;94486.91;;;-6.02;100.00
6204;BME280;3135;42.602;23.468;2023-02-11T03:27:58;94490.56;;;-5.95;100.00
6204;BME280;3135;42.602;23.468;2023-02-11T03:31:10;94473.81;;;-6.10;100.00
6204;BME280;3135;42.602;23.468;2023-02-11T03:40:11;94494.06;;;-6.04;100.00
6204;BME280;3135;42.602;23.468;2023-02-11T03:42:42;94473.88;;;-6.20;100.00
6204;BME280;3135;42.602;23.468;2023-02-11T03:45:12;94476.50;;;-6.02;100.00
6204;BME280;3135;42.602;23.468;2023-02-11T03:47:44;94502.00;;;-5.70;100.00
6204;BME280;3135;42.602;23.468;2023-02-11T03:50:11;94493.16;;;-5.77;100.00
6204;BME280;3135;42.602;23.468;2023-02-11T03:52:39;94469.94;;;-5.88;100.00
6204;BME280;3135;42.602;23.468;2023-02-11T03:55:15;94471.44;;;-5.86;100.00
6204;BME280;3135;42.602;23.468;2023-02-11T03:57:41;94465.25;;;-6.03;100.00
6204;BME280;3135;42.602;23.468;2023-02-11T04:00:07;94463.25;;;-5.91;100.00
6204;BME280;3135;42.602;23.468;2023-02-11T04:02:35;94472.09;;;-5.84;100.00
6204;BME280;3135;42.602;23.468;2023-02-11T04:08:01;94459.53;;;-5.71;100.00
6204;BME280;3135;42.602;23.468;2023-02-11T04:10:27;94467.94;;;-5.77;100.00
6204;BME280;3135;42.602;23.468;2023-02-11T04:12:52;94487.41;;;-5.81;100.00
6204;BME280;3135;42.602;23.468;2023-02-11T04:15:18;94471.38;;;-5.94;100.00
6204;BME280;3135;42.602;23.468;2023-02-11T04:17:43;94457.25;;;-6.09;100.00
6204;BME280;3135;42.602;23.468;2023-02-11T04:20:09;94472.78;;;-6.00;100.00
6204;BME280;3135;42.602;23.468;2023-02-11T04:22:36;94483.91;;;-6.07;100.00
6204;BME280;3135;42.602;23.468;2023-02-11T04:25:02;94491.34;;;-6.12;100.00
6204;BME280;3135;42.602;23.468;2023-02-11T04:27:28;94494.06;;;-6.04;100.00
6204;BME280;3135;42.602;23.468;2023-02-11T04:29:54;94493.31;;;-5.97;100.00
6204;BME280;3135;42.602;23.468;2023-02-11T04:32:19;94476.50;;;-6.02;100.00
6204;BME280;3135;42.602;23.468;2023-02-11T04:34:45;94458.28;;;-6.20;100.00
6204;BME280;3135;42.602;23.468;2023-02-11T04:37:10;94471.34;;;-6.12;100.00
6204;BME280;3135;42.602;23.468;2023-02-11T04:39:36;94469.19;;;-6.17;100.00
6204;BME280;3135;42.602;23.468;2023-02-11T04:42:01;94471.22;;;-6.10;100.00
6204;BME280;3135;42.602;23.468;2023-02-11T04:44:27;94474.47;;;-6.08;100.00
6204;BME280;3135;42.602;23.468;2023-02-11T04:46:52;94481.56;;;-6.01;100.00
6204;BME280;3135;42.602;23.468;2023-02-11T04:49:18;94468.97;;;-6.23;100.00
6204;BME280;3135;42.602;23.468;2023-02-11T04:51:43;94478.66;;;-5.98;100.00
6204;BME280;3135;42.602;23.468;2023-02-11T04:54:09;94468.03;;;-6.04;100.00
6204;BME280;3135;42.602;23.468;2023-02-11T04:56:35;94450.91;;;-6.25;100.00
6204;BME280;3135;42.602;23.468;2023-02-11T04:59:00;94453.25;;;-6.31;100.00
6204;BME280;3135;42.602;23.468;2023-02-11T05:01:26;94467.00;;;-6.11;100.00
6204;BME280;3135;42.602;23.468;2023-02-11T05:03:51;94478.94;;;-6.19;100.00
6204;BME280;3135;42.602;23.468;2023-02-11T05:06:17;94471.28;;;-6.20;100.00
6204;BME280;3135;42.602;23.468;2023-02-11T05:08:42;94459.38;;;-6.23;100.00
6204;BME280;3135;42.602;23.468;2023-02-11T05:11:14;94461.78;;;-6.11;100.00
6204;BME280;3135;42.602;23.468;2023-02-11T05:13:40;94437.03;;;-6.43;100.00
6204;BME280;3135;42.602;23.468;2023-02-11T05:16:05;94462.16;;;-6.06;100.00
6204;BME280;3135;42.602;23.468;2023-02-11T05:18:31;94453.94;;;-6.29;100.00
6204;BME280;3135;42.602;23.468;2023-02-11T05:20:56;94448.06;;;-6.31;100.00
6204;BME280;3135;42.602;23.468;2023-02-11T05:23:22;94452.31;;;-6.30;100.00
6204;BME280;3135;42.602;23.468;2023-02-11T05:25:47;94446.75;;;-6.18;100.00
6204;BME280;3135;42.602;23.468;2023-02-11T05:28:13;94455.59;;;-6.10;100.00
6204;BME280;3135;42.602;23.468;2023-02-11T05:30:38;94447.41;;;-6.33;100.00
6204;BME280;3135;42.602;23.468;2023-02-11T05:33:04;94422.75;;;-6.57;100.00
6204;BME280;3135;42.602;23.468;2023-02-11T05:35:29;94441.72;;;-6.47;100.00
6204;BME280;3135;42.602;23.468;2023-02-11T05:37:54;94463.28;;;-6.36;100.00
6204;BME280;3135;42.602;23.468;2023-02-11T05:40:20;94455.97;;;-6.51;100.00
6204;BME280;3135;42.602;23.468;2023-02-11T05:42:45;94461.88;;;-6.31;100.00
6204;BME280;3135;42.602;23.468;2023-02-11T05:45:11;94456.00;;;-6.33;100.00
6204;BME280;3135;42.602;23.468;2023-02-11T05:47:36;94442.78;;;-6.39;100.00
6204;BME280;3135;42.602;23.468;2023-02-11T05:50:02;94443.59;;;-6.39;100.00
6204;BME280;3135;42.602;23.468;2023-02-11T05:52:27;94472.53;;;-6.24;100.00
6204;BME280;3135;42.602;23.468;2023-02-11T05:54:52;94453.75;;;-6.46;100.00
6204;BME280;3135;42.602;23.468;2023-02-11T05:57:18;94452.97;;;-6.28;100.00
6204;BME280;3135;42.602;23.468;2023-02-11T05:59:43;94471.72;;;-6.25;100.00
6204;BME280;3135;42.602;23.468;2023-02-11T06:02:09;94453.41;;;-6.33;100.00
6204;BME280;3135;42.602;23.468;2023-02-11T06:04:35;94458.78;;;-6.34;100.00
6204;BME280;3135;42.602;23.468;2023-02-11T06:07:01;94471.19;;;-6.28;100.00
6204;BME280;3135;42.602;23.468;2023-02-11T06:09:27;94478.34;;;-6.12;100.00
6204;BME280;3135;42.602;23.468;2023-02-11T06:11:52;94475.19;;;-6.06;100.00
6204;BME280;3135;42.602;23.468;2023-02-11T06:14:17;94461.84;;;-6.03;100.00
6204;BME280;3135;42.602;23.468;2023-02-11T06:16:43;94458.44;;;-6.04;100.00
6204;BME280;3135;42.602;23.468;2023-02-11T06:19:09;94477.28;;;-5.92;100.00
6204;BME280;3135;42.602;23.468;2023-02-11T06:21:35;94451.75;;;-6.06;100.00
6204;BME280;3135;42.602;23.468;2023-02-11T06:24:00;94460.81;;;-6.10;100.00
6204;BME280;3135;42.602;23.468;2023-02-11T06:26:26;94467.59;;;-6.00;100.00
6204;BME280;3135;42.602;23.468;2023-02-11T06:28:51;94469.16;;;-6.07;100.00
6204;BME280;3135;42.602;23.468;2023-02-11T06:31:17;94464.81;;;-6.16;100.00
6204;BME280;3135;42.602;23.468;2023-02-11T06:33:42;94465.41;;;-6.04;100.00
6204;BME280;3135;42.602;23.468;2023-02-11T06:36:16;94482.13;;;-5.89;100.00
6204;BME280;3135;42.602;23.468;2023-02-11T06:38:42;94454.72;;;-6.01;100.00
6204;BME280;3135;42.602;23.468;2023-02-11T06:41:09;94461.38;;;-6.17;100.00
6204;BME280;3135;42.602;23.468;2023-02-11T06:43:35;94484.53;;;-5.78;100.00
6204;BME280;3135;42.602;23.468;2023-02-11T06:46:00;94472.78;;;-5.82;100.00
6204;BME280;3135;42.602;23.468;2023-02-11T06:48:26;94474.03;;;-5.86;100.00
6204;BME280;3135;42.602;23.468;2023-02-11T06:50:51;94460.50;;;-5.89;100.00
6204;BME280;3135;42.602;23.468;2023-02-11T06:53:17;94485.88;;;-5.74;100.00
6204;BME280;3135;42.602;23.468;2023-02-11T06:55:42;94485.19;;;-5.76;100.00
6204;BME280;3135;42.602;23.468;2023-02-11T06:58:07;94492.56;;;-5.71;100.00
6204;BME280;3135;42.602;23.468;2023-02-11T07:00:33;94487.19;;;-5.70;100.00
6204;BME280;3135;42.602;23.468;2023-02-11T07:02:58;94486.22;;;-5.51;100.00
6204;BME280;3135;42.602;23.468;2023-02-11T07:05:24;94468.75;;;-5.58;100.00
6204;BME280;3135;42.602;23.468;2023-02-11T07:07:49;94466.28;;;-5.42;100.00
6204;BME280;3135;42.602;23.468;2023-02-11T07:10:15;94472.53;;;-5.53;100.00
6204;BME280;3135;42.602;23.468;2023-02-11T07:12:40;94488.16;;;-5.35;100.00
6204;BME280;3135;42.602;23.468;2023-02-11T07:15:06;94472.28;;;-5.42;100.00
6204;BME280;3135;42.602;23.468;2023-02-11T07:17:33;94489.94;;;-5.35;100.00
6204;BME280;3135;42.602;23.468;2023-02-11T07:19:59;94464.84;;;-5.36;100.00
6204;BME280;3135;42.602;23.468;2023-02-11T07:22:25;94487.44;;;-5.45;100.00
6204;BME280;3135;42.602;23.468;2023-02-11T07:24:50;94460.84;;;-5.49;100.00
6204;BME280;3135;42.602;23.468;2023-02-11T07:27:16;94475.84;;;-5.25;100.00
6204;BME280;3135;42.602;23.468;2023-02-11T07:29:41;94460.69;;;-5.47;100.00
6204;BME280;3135;42.602;23.468;2023-02-11T07:32:07;94447.03;;;-5.49;100.00
6204;BME280;3135;42.602;23.468;2023-02-11T07:34:32;94455.09;;;-5.34;100.00
6204;BME280;3135;42.602;23.468;2023-02-11T07:36:58;94452.69;;;-5.28;100.00
6204;BME280;3135;42.602;23.468;2023-02-11T07:39:23;94450.63;;;-5.24;100.00
6204;BME280;3135;42.602;23.468;2023-02-11T07:41:52;94446.69;;;-5.02;100.00
6204;BME280;3135;42.602;23.468;2023-02-11T07:44:17;94447.28;;;-4.82;100.00
6204;BME280;3135;42.602;23.468;2023-02-11T07:46:43;94438.66;;;-4.83;100.00
6204;BME280;3135;42.602;23.468;2023-02-11T07:49:10;94433.03;;;-4.96;100.00
6204;BME280;3135;42.602;23.468;2023-02-11T07:51:35;94444.06;;;-4.76;100.00
6204;BME280;3135;42.602;23.468;2023-02-11T07:54:00;94443.69;;;-4.81;100.00
6204;BME280;3135;42.602;23.468;2023-02-11T07:56:27;94441.31;;;-4.75;100.00
6204;BME280;3135;42.602;23.468;2023-02-11T07:58:53;94441.84;;;-4.63;100.00
6204;BME280;3135;42.602;23.468;2023-02-11T08:01:23;94449.06;;;-4.49;100.00
6204;BME280;3135;42.602;23.468;2023-02-11T08:03:51;94432.91;;;-4.60;100.00
6204;BME280;3135;42.602;23.468;2023-02-11T08:06:19;94423.75;;;-4.56;100.00
6204;BME280;3135;42.602;23.468;2023-02-11T08:08:45;94446.00;;;-4.44;100.00
6204;BME280;3135;42.602;23.468;2023-02-11T08:11:14;94429.69;;;-4.46;100.00
6204;BME280;3135;42.602;23.468;2023-02-11T08:13:40;94432.38;;;-4.22;100.00
6204;BME280;3135;42.602;23.468;2023-02-11T08:16:06;94452.47;;;-4.06;100.00
6204;BME280;3135;42.602;23.468;2023-02-11T08:18:32;94426.66;;;-4.25;100.00
6204;BME280;3135;42.602;23.468;2023-02-11T08:21:09;94444.78;;;-4.16;100.00
6204;BME280;3135;42.602;23.468;2023-02-11T08:23:36;94446.94;;;-4.03;100.00
6204;BME280;3135;42.602;23.468;2023-02-11T08:26:08;94451.97;;;-4.09;100.00
6204;BME280;3135;42.602;23.468;2023-02-11T08:28:36;94453.63;;;-4.00;100.00
6204;BME280;3135;42.602;23.468;2023-02-11T08:31:16;94448.88;;;-4.05;100.00
6204;BME280;3135;42.602;23.468;2023-02-11T08:33:42;94443.66;;;-4.05;100.00
6204;BME280;3135;42.602;23.468;2023-02-11T08:36:16;94456.28;;;-3.84;100.00
6204;BME280;3135;42.602;23.468;2023-02-11T08:38:42;94426.38;;;-4.06;100.00
6204;BME280;3135;42.602;23.468;2023-02-11T08:41:08;94456.78;;;-3.80;100.00
6204;BME280;3135;42.602;23.468;2023-02-11T08:43:34;94451.91;;;-3.67;100.00
6204;BME280;3135;42.602;23.468;2023-02-11T08:46:00;94461.06;;;-3.55;100.00
6204;BME280;3135;42.602;23.468;2023-02-11T08:48:26;94465.63;;;-3.49;100.00
6204;BME280;3135;42.602;23.468;2023-02-11T08:50:53;94443.09;;;-3.50;100.00
6204;BME280;3135;42.602;23.468;2023-02-11T08:53:19;94441.81;;;-3.38;100.00
6204;BME280;3135;42.602;23.468;2023-02-11T08:55:49;94453.91;;;-3.28;100.00
6204;BME280;3135;42.602;23.468;2023-02-11T08:58:14;94462.38;;;-3.26;100.00
6204;BME280;3135;42.602;23.468;2023-02-11T09:00:40;94459.41;;;-3.07;100.00
6204;BME280;3135;42.602;23.468;2023-02-11T09:03:07;94439.03;;;-3.20;100.00
6204;BME280;3135;42.602;23.468;2023-02-11T09:05:32;94441.16;;;-3.15;100.00
6204;BME280;3135;42.602;23.468;2023-02-11T09:07:57;94433.13;;;-3.05;100.00
6204;BME280;3135;42.602;23.468;2023-02-11T09:10:23;94429.03;;;-3.16;100.00
6204;BME280;3135;42.602;23.468;2023-02-11T09:12:48;94435.06;;;-3.08;100.00
6204;BME280;3135;42.602;23.468;2023-02-11T09:15:14;94454.00;;;-2.97;100.00
6204;BME280;3135;42.602;23.468;2023-02-11T09:17:39;94441.25;;;-2.84;100.00
6204;BME280;3135;42.602;23.468;2023-02-11T09:20:05;94452.03;;;-2.87;100.00
6204;BME280;3135;42.602;23.468;2023-02-11T09:22:30;94449.25;;;-2.77;100.00
6204;BME280;3135;42.602;23.468;2023-02-11T09:24:56;94431.44;;;-2.82;100.00
6204;BME280;3135;42.602;23.468;2023-02-11T09:27:21;94419.81;;;-2.88;100.00
6204;BME280;3135;42.602;23.468;2023-02-11T09:29:47;94441.16;;;-2.51;100.00
6204;BME280;3135;42.602;23.468;2023-02-11T09:32:12;94423.16;;;-2.54;100.00
6204;BME280;3135;42.602;23.468;2023-02-11T09:34:38;94420.22;;;-2.51;100.00
6204;BME280;3135;42.602;23.468;2023-02-11T09:37:03;94420.19;;;-2.43;100.00
6204;BME280;3135;42.602;23.468;2023-02-11T09:39:28;94417.56;;;-2.43;100.00
6204;BME280;3135;42.602;23.468;2023-02-11T09:44:33;94416.06;;;-2.29;100.00
6204;BME280;3135;42.602;23.468;2023-02-11T09:47:03;94411.63;;;-2.29;100.00
6204;BME280;3135;42.602;23.468;2023-02-11T09:49:34;94419.38;;;-2.13;100.00
6204;BME280;3135;42.602;23.468;2023-02-11T09:52:14;94413.53;;;-2.15;100.00
6204;BME280;3135;42.602;23.468;2023-02-11T09:54:58;94368.66;;;-2.43;100.00
6204;BME280;3135;42.602;23.468;2023-02-11T09:57:31;94395.09;;;-2.29;100.00
6204;BME280;3135;42.602;23.468;2023-02-11T09:59:59;94384.78;;;-2.31;100.00
6204;BME280;3135;42.602;23.468;2023-02-11T10:02:47;94392.81;;;-2.01;100.00
6204;BME280;3135;42.602;23.468;2023-02-11T10:05:24;94388.66;;;-1.88;100.00
6204;BME280;3135;42.602;23.468;2023-02-11T10:10:53;94384.50;;;-2.05;100.00
6204;BME280;3135;42.602;23.468;2023-02-11T10:16:04;94373.03;;;-1.81;100.00
6204;BME280;3135;42.602;23.468;2023-02-11T10:18:53;94368.72;;;-1.74;100.00
6204;BME280;3135;42.602;23.468;2023-02-11T10:21:31;94362.97;;;-1.69;100.00
6204;BME280;3135;42.602;23.468;2023-02-11T10:24:03;94350.31;;;-1.66;100.00
6204;BME280;3135;42.602;23.468;2023-02-11T10:26:35;94359.97;;;-1.43;100.00
6204;BME280;3135;42.602;23.468;2023-02-11T10:31:53;94323.53;;;-1.38;100.00
6204;BME280;3135;42.602;23.468;2023-02-11T10:34:19;94307.59;;;-1.37;100.00
6204;BME280;3135;42.602;23.468;2023-02-11T10:36:45;94310.88;;;-1.20;100.00
6204;BME280;3135;42.602;23.468;2023-02-11T10:39:13;94319.22;;;-1.01;100.00
6204;BME280;3135;42.602;23.468;2023-02-11T10:41:45;94312.34;;;-1.02;100.00
6204;BME280;3135;42.602;23.468;2023-02-11T10:44:32;94304.66;;;-0.89;100.00
6204;BME280;3135;42.602;23.468;2023-02-11T10:47:01;94263.59;;;-1.12;100.00
6204;BME280;3135;42.602;23.468;2023-02-11T10:49:34;94280.13;;;-0.96;100.00
6204;BME280;3135;42.602;23.468;2023-02-11T10:52:20;94291.13;;;-0.71;100.00
6204;BME280;3135;42.602;23.468;2023-02-11T10:55:05;94284.50;;;-0.53;100.00
6204;BME280;3135;42.602;23.468;2023-02-11T10:57:49;94252.66;;;-0.64;100.00
6204;BME280;3135;42.602;23.468;2023-02-11T11:00:37;94276.50;;;-0.66;100.00
6204;BME280;3135;42.602;23.468;2023-02-11T11:03:25;94275.56;;;-0.58;100.00
6204;BME280;3135;42.602;23.468;2023-02-11T11:05:53;94277.03;;;-0.34;100.00
6204;BME280;3135;42.602;23.468;2023-02-11T11:08:19;94259.50;;;-0.48;100.00
6204;BME280;3135;42.602;23.468;2023-02-11T11:10:47;94269.91;;;-0.40;100.00
6204;BME280;3135;42.602;23.468;2023-02-11T11:13:26;94274.34;;;-0.41;100.00
6204;BME280;3135;42.602;23.468;2023-02-11T11:18:40;94262.38;;;-0.43;100.00
6204;BME280;3135;42.602;23.468;2023-02-11T11:21:22;94247.03;;;-0.61;100.00
6204;BME280;3135;42.602;23.468;2023-02-11T11:23:56;94258.19;;;-0.59;100.00
6204;BME280;3135;42.602;23.468;2023-02-11T11:26:25;94254.63;;;-0.52;100.00
6204;BME280;3135;42.602;23.468;2023-02-11T11:28:53;94260.75;;;-0.44;100.00
6204;BME280;3135;42.602;23.468;2023-02-11T11:31:48;94258.88;;;-0.50;100.00
6204;BME280;3135;42.602;23.468;2023-02-11T11:34:35;94258.72;;;-0.28;100.00
6204;BME280;3135;42.602;23.468;2023-02-11T11:37:25;94251.16;;;-0.16;99.16
6204;BME280;3135;42.602;23.468;2023-02-11T11:42:30;94254.97;;;0.03;97.04
6204;BME280;3135;42.602;23.468;2023-02-11T11:44:59;94224.00;;;-0.02;97.57
6204;BME280;3135;42.602;23.468;2023-02-11T11:47:34;94231.63;;;0.15;95.00
6204;BME280;3135;42.602;23.468;2023-02-11T11:55:41;94245.25;;;0.04;95.10
6204;BME280;3135;42.602;23.468;2023-02-11T11:58:19;94241.25;;;0.08;95.23
6204;BME280;3135;42.602;23.468;2023-02-11T12:11:37;94219.06;;;0.10;94.48
6204;BME280;3135;42.602;23.468;2023-02-11T12:19:53;94219.41;;;0.29;94.94
6204;BME280;3135;42.602;23.468;2023-02-11T12:25:47;94209.53;;;0.37;93.93
6204;BME280;3135;42.602;23.468;2023-02-11T12:37:08;94172.69;;;0.03;96.96
6204;BME280;3135;42.602;23.468;2023-02-11T12:42:33;94178.50;;;0.26;95.55
6204;BME280;3135;42.602;23.468;2023-02-11T12:45:30;94166.97;;;0.27;94.25
6204;BME280;3135;42.602;23.468;2023-02-11T12:51:28;94161.16;;;0.32;98.98
6204;BME280;3135;42.602;23.468;2023-02-11T12:54:14;94164.91;;;0.50;93.47
6204;BME280;3135;42.602;23.468;2023-02-11T12:56:54;94155.13;;;0.38;96.16
6204;BME280;3135;42.602;23.468;2023-02-11T13:05:39;94151.16;;;0.48;96.21
6204;BME280;3135;42.602;23.468;2023-02-11T13:10:46;94135.44;;;0.62;94.62
6204;BME280;3135;42.602;23.468;2023-02-11T13:13:23;94123.69;;;0.64;94.31
6204;BME280;3135;42.602;23.468;2023-02-11T13:16:16;94140.69;;;0.62;96.65
6204;BME280;3135;42.602;23.468;2023-02-11T13:26:44;94137.13;;;0.83;97.87
6204;BME280;3135;42.602;23.468;2023-02-11T13:31:52;94120.88;;;0.66;97.63
6204;BME280;3135;42.602;23.468;2023-02-11T13:34:53;94130.00;;;0.70;100.00
6204;BME280;3135;42.602;23.468;2023-02-11T13:37:37;94141.16;;;0.79;97.58
6204;BME280;3135;42.602;23.468;2023-02-11T13:43:03;94131.72;;;0.49;95.90
6204;BME280;3135;42.602;23.468;2023-02-11T13:48:05;94111.53;;;0.22;99.14
6204;BME280;3135;42.602;23.468;2023-02-11T13:50:45;94113.00;;;0.31;100.00
6204;BME280;3135;42.602;23.468;2023-02-11T13:53:12;94113.50;;;0.13;100.00
6204;BME280;3135;42.602;23.468;2023-02-11T13:55:39;94103.09;;;-0.02;100.00
6204;BME280;3135;42.602;23.468;2023-02-11T14:14:02;94096.81;;;-0.35;100.00
6204;BME280;3135;42.602;23.468;2023-02-11T14:19:41;94085.84;;;-0.39;100.00
6204;BME280;3135;42.602;23.468;2023-02-11T14:22:13;94081.81;;;-0.41;100.00
6204;BME280;3135;42.602;23.468;2023-02-11T14:24:58;94080.78;;;-0.47;100.00
6204;BME280;3135;42.602;23.468;2023-02-11T14:27:45;94098.31;;;-0.47;100.00
6204;BME280;3135;42.602;23.468;2023-02-11T14:33:37;94092.69;;;-0.44;100.00
6204;BME280;3135;42.602;23.468;2023-02-11T14:41:41;94083.59;;;-0.70;100.00
6204;BME280;3135;42.602;23.468;2023-02-11T14:44:19;94086.84;;;-0.68;100.00
6204;BME280;3135;42.602;23.468;2023-02-11T14:46:47;94072.72;;;-0.88;100.00
6204;BME280;3135;42.602;23.468;2023-02-11T14:49:24;94100.13;;;-0.91;100.00
6204;BME280;3135;42.602;23.468;2023-02-11T14:51:53;94082.09;;;-1.00;100.00
6204;BME280;3135;42.602;23.468;2023-02-11T14:54:22;94088.28;;;-1.08;100.00
6204;BME280;3135;42.602;23.468;2023-02-11T14:57:12;94102.72;;;-0.97;100.00
6204;BME280;3135;42.602;23.468;2023-02-11T14:59:39;94098.06;;;-1.17;100.00
6204;BME280;3135;42.602;23.468;2023-02-11T15:02:22;94108.81;;;-1.12;100.00
6204;BME280;3135;42.602;23.468;2023-02-11T15:04:47;94098.94;;;-1.10;100.00
6204;BME280;3135;42.602;23.468;2023-02-11T15:07:14;94066.09;;;-1.06;100.00
6204;BME280;3135;42.602;23.468;2023-02-11T15:09:45;94093.63;;;-1.16;100.00
6204;BME280;3135;42.602;23.468;2023-02-11T15:14:29;94083.41;;;-1.11;100.00
6204;BME280;3135;42.602;23.468;2023-02-11T15:17:03;94071.34;;;-1.27;100.00
6204;BME280;3135;42.602;23.468;2023-02-11T15:19:34;94054.03;;;-1.58;100.00
6204;BME280;3135;42.602;23.468;2023-02-11T15:22:03;94075.94;;;-1.29;100.00
6204;BME280;3135;42.602;23.468;2023-02-11T15:24:31;94083.19;;;-1.31;100.00
6204;BME280;3135;42.602;23.468;2023-02-11T15:27:10;94080.31;;;-1.36;100.00
6204;BME280;3135;42.602;23.468;2023-02-11T15:29:49;94075.53;;;-1.47;100.00
6204;BME280;3135;42.602;23.468;2023-02-11T15:32:23;94062.16;;;-1.52;100.00
6204;BME280;3135;42.602;23.468;2023-02-11T15:34:51;94045.38;;;-1.58;100.00
6204;BME280;3135;42.602;23.468;2023-02-11T15:37:21;94066.56;;;-1.38;100.00
6204;BME280;3135;42.602;23.468;2023-02-11T15:39:47;94062.34;;;-1.54;100.00
6204;BME280;3135;42.602;23.468;2023-02-11T15:42:22;94056.91;;;-1.52;100.00
6204;BME280;3135;42.602;23.468;2023-02-11T15:45:06;94042.13;;;-1.75;100.00
6204;BME280;3135;42.602;23.468;2023-02-11T15:47:32;94050.91;;;-1.83;100.00